La rose des vents
Donnes mto: Semaine 04/04/22 - 10/04/22 (S 14)
Date Horaire Temp. E. Hum. E. P.atmo. Pluie Vent 1mn Direction Ensoleilleme Ev.Tr. Solaire P. de rose Temp au vent Rafales
04/04/2022 00:00 5,2 C 94 % 1016,4 hPa 0,0 mm 0,2 km/h (0 Bft) NO 0,00 h 0,000 mm 0 W/m 4,3 C 5,2 C 0,8 km/h (0 Bft)
04/04/2022 01:00 5,0 C 94 % 1016,3 hPa 0,0 mm 1,0 km/h (0 Bft) NO 0,00 h 0,000 mm 0 W/m 4,1 C 5,0 C 2,4 km/h (1 Bft)
04/04/2022 02:00 5,0 C 94 % 1016,3 hPa 0,0 mm 0,0 km/h (0 Bft) N 0,00 h 0,000 mm 0 W/m 4,1 C 5,0 C 0,1 km/h (0 Bft)
04/04/2022 03:00 4,7 C 94 % 1016,2 hPa 0,0 mm 0,0 km/h (0 Bft) N 0,00 h 0,000 mm 0 W/m 3,7 C 4,7 C 0,1 km/h (0 Bft)
04/04/2022 04:00 4,1 C 93 % 1016,3 hPa 0,0 mm 0,1 km/h (0 Bft) NO 0,00 h 0,000 mm 0 W/m 3,1 C 4,1 C 0,3 km/h (0 Bft)
04/04/2022 05:00 3,7 C 92 % 1016,3 hPa 0,2 mm 0,3 km/h (0 Bft) NO 0,00 h 0,000 mm 0 W/m 2,6 C 3,7 C 1,1 km/h (1 Bft)
04/04/2022 06:00 3,6 C 92 % 1016,3 hPa 0,0 mm 0,1 km/h (0 Bft) NO 0,00 h 0,000 mm 0 W/m 2,4 C 3,6 C 0,6 km/h (0 Bft)
04/04/2022 07:00 3,6 C 92 % 1016,6 hPa 0,0 mm 0,0 km/h (0 Bft) N 0,00 h 0,000 mm 16 W/m 2,5 C 3,6 C 0,1 km/h (0 Bft)
04/04/2022 08:00 4,6 C 93 % 1017,1 hPa 0,0 mm 0,0 km/h (0 Bft) NO 0,00 h 0,000 mm 52 W/m 3,6 C 4,6 C 0,1 km/h (0 Bft)
04/04/2022 09:00 7,6 C 89 % 1017,7 hPa 0,0 mm 0,0 km/h (0 Bft) N 0,55 h 0,025 mm 261 W/m 5,8 C 7,6 C 0,0 km/h (0 Bft)
04/04/2022 10:00 10,9 C 74 % 1017,9 hPa 0,0 mm 0,2 km/h (0 Bft) N-NE 0,62 h 0,127 mm 377 W/m 6,4 C 10,9 C 1,8 km/h (1 Bft)
04/04/2022 11:00 13,2 C 65 % 1018,0 hPa 0,0 mm 0,7 km/h (0 Bft) E 0,68 h 0,178 mm 500 W/m 6,8 C 13,2 C 3,4 km/h (1 Bft)
04/04/2022 12:00 13,4 C 64 % 1018,0 hPa 0,0 mm 2,9 km/h (1 Bft) E-SE 0,77 h 0,254 mm 693 W/m 6,8 C 13,4 C 7,8 km/h (2 Bft)
04/04/2022 13:00 14,9 C 59 % 1017,7 hPa 0,0 mm 3,1 km/h (1 Bft) E 1,00 h 0,356 mm 811 W/m 6,8 C 14,9 C 8,7 km/h (2 Bft)
04/04/2022 14:00 14,8 C 57 % 1017,3 hPa 0,0 mm 2,5 km/h (1 Bft) E 0,93 h 0,432 mm 760 W/m 6,3 C 14,8 C 7,2 km/h (2 Bft)
04/04/2022 15:00 14,2 C 59 % 1017,0 hPa 0,0 mm 1,4 km/h (1 Bft) E 0,73 h 0,406 mm 568 W/m 6,2 C 14,2 C 4,9 km/h (1 Bft)
04/04/2022 16:00 14,2 C 55 % 1016,1 hPa 0,0 mm 1,8 km/h (1 Bft) E 1,00 h 0,305 mm 521 W/m 5,3 C 14,2 C 5,0 km/h (1 Bft)
04/04/2022 17:00 13,6 C 57 % 1015,7 hPa 0,0 mm 1,3 km/h (1 Bft) E 0,98 h 0,279 mm 357 W/m 5,1 C 13,6 C 4,4 km/h (1 Bft)
04/04/2022 18:00 12,8 C 57 % 1015,6 hPa 0,0 mm 0,1 km/h (0 Bft) E-SE 0,85 h 0,203 mm 189 W/m 4,4 C 12,8 C 1,1 km/h (1 Bft)
04/04/2022 19:00 11,0 C 59 % 1015,7 hPa 0,0 mm 0,0 km/h (0 Bft) N 0,02 h 0,102 mm 23 W/m 3,4 C 11,0 C 0,0 km/h (0 Bft)
04/04/2022 20:00 9,2 C 66 % 1015,6 hPa 0,0 mm 0,0 km/h (0 Bft) N 0,00 h 0,025 mm 5 W/m 3,2 C 9,2 C 0,0 km/h (0 Bft)
04/04/2022 21:00 7,8 C 71 % 1015,8 hPa 0,0 mm 0,1 km/h (0 Bft) E-SE 0,00 h 0,000 mm 0 W/m 2,9 C 7,8 C 0,6 km/h (0 Bft)
04/04/2022 22:00 7,0 C 75 % 1015,9 hPa 0,0 mm 2,5 km/h (1 Bft) E-SE 0,00 h 0,025 mm 0 W/m 2,8 C 6,9 C 4,6 km/h (1 Bft)
04/04/2022 23:00 6,8 C 76 % 1015,6 hPa 0,0 mm 3,1 km/h (1 Bft) NO 0,00 h 0,025 mm 0 W/m 2,9 C 6,7 C 5,1 km/h (1 Bft)
05/04/2022 00:00 6,5 C 77 % 1015,5 hPa 0,0 mm 2,1 km/h (1 Bft) NO 0,00 h 0,025 mm 0 W/m 2,7 C 6,5 C 3,7 km/h (1 Bft)
05/04/2022 01:00 6,0 C 79 % 1015,3 hPa 0,0 mm 3,7 km/h (1 Bft) NO 0,00 h 0,025 mm 0 W/m 2,6 C 5,6 C 6,4 km/h (2 Bft)
05/04/2022 02:00 6,0 C 78 % 1014,6 hPa 0,0 mm 0,2 km/h (0 Bft) NO 0,00 h 0,025 mm 0 W/m 2,5 C 6,0 C 1,1 km/h (1 Bft)
05/04/2022 03:00 5,8 C 78 % 1014,0 hPa 0,0 mm 0,2 km/h (0 Bft) NO 0,00 h 0,025 mm 0 W/m 2,3 C 5,8 C 0,9 km/h (0 Bft)
05/04/2022 04:00 5,6 C 79 % 1013,7 hPa 0,0 mm 0,1 km/h (0 Bft) NO 0,00 h 0,025 mm 0 W/m 2,2 C 5,6 C 0,4 km/h (0 Bft)
05/04/2022 05:00 5,3 C 80 % 1013,5 hPa 0,0 mm 0,2 km/h (0 Bft) NO 0,00 h 0,025 mm 0 W/m 2,0 C 5,3 C 0,9 km/h (0 Bft)
05/04/2022 06:00 5,3 C 79 % 1013,4 hPa 0,0 mm 1,0 km/h (0 Bft) NO 0,00 h 0,000 mm 0 W/m 1,9 C 5,3 C 2,5 km/h (1 Bft)
05/04/2022 07:00 5,0 C 79 % 1013,3 hPa 0,0 mm 0,3 km/h (0 Bft) NO 0,02 h 0,000 mm 14 W/m 1,8 C 5,0 C 1,4 km/h (1 Bft)
05/04/2022 08:00 6,0 C 79 % 1013,5 hPa 0,0 mm 0,1 km/h (0 Bft) NO 0,00 h 0,000 mm 31 W/m 2,7 C 6,0 C 0,4 km/h (0 Bft)
05/04/2022 09:00 10,0 C 70 % 1013,4 hPa 0,0 mm 0,2 km/h (0 Bft) S-SO 0,72 h 0,025 mm 299 W/m 4,7 C 10,0 C 0,7 km/h (0 Bft)
05/04/2022 10:00 13,2 C 55 % 1013,5 hPa 0,0 mm 3,6 km/h (1 Bft) S-SO 1,00 h 0,152 mm 517 W/m 4,3 C 13,2 C 7,3 km/h (2 Bft)
05/04/2022 11:00 14,7 C 49 % 1013,7 hPa 0,0 mm 2,8 km/h (1 Bft) S 1,00 h 0,279 mm 645 W/m 4,3 C 14,7 C 6,2 km/h (2 Bft)
05/04/2022 12:00 16,1 C 48 % 1013,4 hPa 0,0 mm 3,6 km/h (1 Bft) S 1,00 h 0,356 mm 724 W/m 5,1 C 16,1 C 8,0 km/h (2 Bft)
05/04/2022 13:00 17,1 C 49 % 1013,0 hPa 0,0 mm 2,6 km/h (1 Bft) E 1,00 h 0,406 mm 753 W/m 6,2 C 17,1 C 6,7 km/h (2 Bft)
05/04/2022 14:00 16,4 C 57 % 1012,9 hPa 0,0 mm 5,0 km/h (1 Bft) S 1,00 h 0,432 mm 724 W/m 7,9 C 16,4 C 11,4 km/h (2 Bft)
05/04/2022 15:00 16,3 C 57 % 1012,5 hPa 0,0 mm 3,8 km/h (1 Bft) S-SE 1,00 h 0,406 mm 647 W/m 7,7 C 16,3 C 8,6 km/h (2 Bft)
05/04/2022 16:00 16,0 C 56 % 1012,2 hPa 0,0 mm 3,3 km/h (1 Bft) S-SE 1,00 h 0,381 mm 525 W/m 7,3 C 16,0 C 7,9 km/h (2 Bft)
05/04/2022 17:00 15,5 C 61 % 1011,8 hPa 0,0 mm 1,6 km/h (1 Bft) S-SE 1,00 h 0,305 mm 371 W/m 8,0 C 15,5 C 4,4 km/h (1 Bft)
05/04/2022 18:00 14,7 C 58 % 1011,7 hPa 0,0 mm 0,2 km/h (0 Bft) S-SE 0,92 h 0,203 mm 198 W/m 6,6 C 14,7 C 1,0 km/h (0 Bft)
05/04/2022 19:00 12,6 C 55 % 1011,8 hPa 0,0 mm 0,8 km/h (0 Bft) S 0,00 h 0,102 mm 20 W/m 3,9 C 12,6 C 2,3 km/h (1 Bft)
05/04/2022 20:00 10,9 C 61 % 1011,9 hPa 0,0 mm 0,0 km/h (0 Bft) N 0,00 h 0,025 mm 5 W/m 3,7 C 10,9 C 0,1 km/h (0 Bft)
05/04/2022 21:00 9,8 C 68 % 1012,2 hPa 0,0 mm 0,0 km/h (0 Bft) N 0,00 h 0,000 mm 0 W/m 4,1 C 9,8 C 0,1 km/h (0 Bft)
05/04/2022 22:00 8,7 C 73 % 1012,2 hPa 0,0 mm 0,4 km/h (0 Bft) O-SO 0,00 h 0,025 mm 0 W/m 4,1 C 8,7 C 2,0 km/h (1 Bft)
05/04/2022 23:00 8,1 C 73 % 1012,2 hPa 0,0 mm 0,0 km/h (0 Bft) O-SO 0,00 h 0,025 mm 0 W/m 3,6 C 8,1 C 0,2 km/h (0 Bft)
06/04/2022 00:00 7,8 C 74 % 1012,2 hPa 0,0 mm 0,0 km/h (0 Bft) N 0,00 h 0,025 mm 0 W/m 3,4 C 7,8 C 0,0 km/h (0 Bft)
06/04/2022 01:00 7,3 C 75 % 1012,1 hPa 0,0 mm 0,0 km/h (0 Bft) N 0,00 h 0,025 mm 0 W/m 3,2 C 7,3 C 0,6 km/h (0 Bft)
06/04/2022 02:00 7,3 C 74 % 1011,6 hPa 0,0 mm 0,0 km/h (0 Bft) N 0,00 h 0,025 mm 0 W/m 3,0 C 7,3 C 0,2 km/h (0 Bft)
06/04/2022 03:00 7,2 C 74 % 1011,2 hPa 0,0 mm 0,0 km/h (0 Bft) N 0,00 h 0,025 mm 0 W/m 2,9 C 7,2 C 0,3 km/h (0 Bft)
06/04/2022 04:00 6,9 C 74 % 1010,8 hPa 0,0 mm 0,1 km/h (0 Bft) O-SO 0,00 h 0,025 mm 0 W/m 2,6 C 6,9 C 0,6 km/h (0 Bft)
06/04/2022 05:00 6,4 C 74 % 1010,3 hPa 0,0 mm 0,2 km/h (0 Bft) O-SO 0,00 h 0,025 mm 0 W/m 2,2 C 6,4 C 0,8 km/h (0 Bft)
06/04/2022 06:00 6,5 C 75 % 1010,2 hPa 0,0 mm 0,0 km/h (0 Bft) N 0,00 h 0,025 mm 0 W/m 2,5 C 6,5 C 0,0 km/h (0 Bft)
06/04/2022 07:00 6,2 C 79 % 1010,6 hPa 0,0 mm 0,8 km/h (0 Bft) O-SO 0,02 h 0,000 mm 23 W/m 2,8 C 6,2 C 2,1 km/h (1 Bft)
06/04/2022 08:00 7,2 C 78 % 1010,5 hPa 0,0 mm 0,0 km/h (0 Bft) O-SO 0,00 h 0,025 mm 87 W/m 3,7 C 7,2 C 0,2 km/h (0 Bft)
06/04/2022 09:00 8,7 C 80 % 1010,8 hPa 0,0 mm 0,0 km/h (0 Bft) N 0,17 h 0,051 mm 189 W/m 5,4 C 8,7 C 0,0 km/h (0 Bft)
06/04/2022 10:00 12,9 C 73 % 1010,8 hPa 0,0 mm 0,1 km/h (0 Bft) NO 0,82 h 0,076 mm 456 W/m 8,1 C 12,9 C 1,1 km/h (0 Bft)
06/04/2022 11:00 14,1 C 68 % 1010,4 hPa 0,0 mm 1,0 km/h (0 Bft) E 0,20 h 0,229 mm 345 W/m 8,2 C 14,1 C 3,4 km/h (1 Bft)
06/04/2022 12:00 14,0 C 69 % 1010,2 hPa 0,0 mm 1,5 km/h (1 Bft) E 0,47 h 0,178 mm 437 W/m 8,5 C 14,0 C 4,6 km/h (1 Bft)
06/04/2022 13:00 15,1 C 67 % 1009,7 hPa 0,0 mm 2,2 km/h (1 Bft) E 0,28 h 0,229 mm 439 W/m 9,1 C 15,1 C 6,1 km/h (2 Bft)
06/04/2022 14:00 14,0 C 70 % 1009,1 hPa 0,0 mm 1,7 km/h (1 Bft) E 0,00 h 0,229 mm 323 W/m 8,7 C 14,0 C 4,9 km/h (1 Bft)
06/04/2022 15:00 13,4 C 72 % 1008,4 hPa 0,0 mm 1,7 km/h (1 Bft) E 0,00 h 0,178 mm 226 W/m 8,5 C 13,4 C 4,6 km/h (1 Bft)
06/04/2022 16:00 12,9 C 74 % 1008,1 hPa 0,0 mm 1,9 km/h (1 Bft) E-SE 0,00 h 0,127 mm 178 W/m 8,4 C 12,9 C 4,3 km/h (1 Bft)
06/04/2022 17:00 12,3 C 76 % 1007,9 hPa 0,0 mm 1,3 km/h (1 Bft) E-SE 0,00 h 0,102 mm 98 W/m 8,2 C 12,3 C 3,4 km/h (1 Bft)
06/04/2022 18:00 11,8 C 78 % 1007,6 hPa 0,0 mm 0,7 km/h (0 Bft) E-SE 0,00 h 0,051 mm 57 W/m 8,0 C 11,8 C 2,1 km/h (1 Bft)
06/04/2022 19:00 11,3 C 79 % 1007,6 hPa 0,0 mm 0,9 km/h (0 Bft) E-SE 0,43 h 0,025 mm 45 W/m 7,8 C 11,3 C 2,7 km/h (1 Bft)
06/04/2022 20:00 10,5 C 80 % 1007,6 hPa 0,0 mm 0,0 km/h (0 Bft) N 0,00 h 0,025 mm 10 W/m 7,3 C 10,5 C 0,0 km/h (0 Bft)
06/04/2022 21:00 9,7 C 84 % 1007,9 hPa 0,0 mm 0,0 km/h (0 Bft) N 0,00 h 0,000 mm 0 W/m 7,1 C 9,7 C 0,0 km/h (0 Bft)
06/04/2022 22:00 9,2 C 85 % 1007,8 hPa 0,0 mm 0,0 km/h (0 Bft) N 0,00 h 0,000 mm 0 W/m 6,8 C 9,2 C 0,0 km/h (0 Bft)
06/04/2022 23:00 8,7 C 88 % 1007,4 hPa 0,0 mm 0,0 km/h (0 Bft) N 0,00 h 0,000 mm 0 W/m 6,8 C 8,7 C 0,0 km/h (0 Bft)
07/04/2022 00:00 8,3 C 88 % 1006,8 hPa 0,0 mm 0,0 km/h (0 Bft) N 0,00 h 0,000 mm 0 W/m 6,4 C 8,3 C 0,0 km/h (0 Bft)
07/04/2022 01:00 7,8 C 90 % 1006,4 hPa 0,0 mm 0,5 km/h (0 Bft) E-SE 0,00 h 0,000 mm 0 W/m 6,2 C 7,8 C 2,2 km/h (1 Bft)
07/04/2022 02:00 7,3 C 90 % 1006,0 hPa 0,0 mm 1,0 km/h (0 Bft) E-SE 0,00 h 0,000 mm 0 W/m 5,7 C 7,3 C 1,9 km/h (1 Bft)
07/04/2022 03:00 7,3 C 90 % 1005,5 hPa 0,0 mm 0,2 km/h (0 Bft) E-SE 0,00 h 0,000 mm 0 W/m 5,8 C 7,3 C 0,9 km/h (0 Bft)
07/04/2022 04:00 7,4 C 89 % 1004,9 hPa 0,0 mm 0,4 km/h (0 Bft) E-SE 0,00 h 0,000 mm 0 W/m 5,7 C 7,4 C 1,0 km/h (0 Bft)
07/04/2022 05:00 7,3 C 88 % 1004,7 hPa 0,0 mm 0,3 km/h (0 Bft) E-SE 0,00 h 0,000 mm 0 W/m 5,5 C 7,3 C 1,1 km/h (0 Bft)
07/04/2022 06:00 7,3 C 89 % 1004,9 hPa 0,0 mm 0,1 km/h (0 Bft) E-SE 0,00 h 0,000 mm 5 W/m 5,6 C 7,3 C 0,4 km/h (0 Bft)
07/04/2022 07:00 7,5 C 90 % 1005,4 hPa 0,0 mm 0,0 km/h (0 Bft) N 0,03 h 0,000 mm 15 W/m 6,0 C 7,5 C 0,0 km/h (0 Bft)
07/04/2022 08:00 8,0 C 90 % 1006,1 hPa 0,0 mm 0,0 km/h (0 Bft) N 0,00 h 0,000 mm 68 W/m 6,5 C 8,0 C 0,0 km/h (0 Bft)
07/04/2022 09:00 9,7 C 90 % 1006,7 hPa 0,0 mm 0,0 km/h (0 Bft) N 0,00 h 0,025 mm 151 W/m 8,0 C 9,7 C 0,0 km/h (0 Bft)
07/04/2022 10:00 11,4 C 85 % 1007,1 hPa 0,0 mm 0,0 km/h (0 Bft) N 0,00 h 0,076 mm 129 W/m 9,0 C 11,4 C 0,0 km/h (0 Bft)
07/04/2022 11:00 13,7 C 80 % 1007,0 hPa 0,0 mm 1,3 km/h (1 Bft) E-SE 0,80 h 0,051 mm 553 W/m 10,2 C 13,7 C 3,3 km/h (1 Bft)
07/04/2022 12:00 16,7 C 67 % 1006,1 hPa 0,0 mm 3,4 km/h (1 Bft) E 0,95 h 0,279 mm 652 W/m 10,6 C 16,7 C 7,9 km/h (2 Bft)
07/04/2022 13:00 17,7 C 66 % 1005,4 hPa 0,0 mm 2,0 km/h (1 Bft) E 0,98 h 0,356 mm 707 W/m 11,2 C 17,7 C 6,4 km/h (2 Bft)
07/04/2022 14:00 18,9 C 60 % 1004,7 hPa 0,0 mm 4,3 km/h (1 Bft) E 1,00 h 0,406 mm 692 W/m 11,0 C 18,9 C 9,6 km/h (2 Bft)
07/04/2022 15:00 18,8 C 60 % 1003,8 hPa 0,0 mm 1,1 km/h (1 Bft) E 0,37 h 0,406 mm 395 W/m 10,8 C 18,8 C 4,1 km/h (1 Bft)
07/04/2022 16:00 20,6 C 55 % 1003,3 hPa 0,0 mm 1,2 km/h (1 Bft) E 1,00 h 0,229 mm 551 W/m 11,3 C 20,6 C 4,4 km/h (1 Bft)
07/04/2022 17:00 21,6 C 46 % 1003,1 hPa 0,0 mm 4,0 km/h (1 Bft) O-NO 0,92 h 0,330 mm 388 W/m 9,4 C 21,6 C 10,9 km/h (2 Bft)
07/04/2022 18:00 20,5 C 43 % 1003,6 hPa 0,0 mm 9,4 km/h (2 Bft) S-SO 0,77 h 0,254 mm 193 W/m 7,6 C 20,5 C 19,8 km/h (4 Bft)
07/04/2022 19:00 17,8 C 51 % 1004,5 hPa 0,0 mm 8,2 km/h (2 Bft) S-SO 0,08 h 0,203 mm 32 W/m 7,5 C 17,8 C 18,0 km/h (3 Bft)
07/04/2022 20:00 17,6 C 51 % 1005,3 hPa 0,0 mm 3,8 km/h (1 Bft) O-SO 0,00 h 0,076 mm 7 W/m 7,2 C 17,6 C 11,0 km/h (2 Bft)
07/04/2022 21:00 16,7 C 56 % 1006,3 hPa 0,0 mm 6,4 km/h (2 Bft) S-SO 0,00 h 0,025 mm 0 W/m 8,0 C 16,7 C 13,5 km/h (3 Bft)
07/04/2022 22:00 16,0 C 62 % 1006,4 hPa 0,0 mm 19,9 km/h (4 Bft) S-SO 0,00 h 0,076 mm 0 W/m 8,7 C 16,0 C 30,1 km/h (5 Bft)
07/04/2022 23:00 15,7 C 63 % 1005,9 hPa 0,0 mm 19,5 km/h (3 Bft) S-SO 0,00 h 0,102 mm 0 W/m 8,8 C 15,7 C 30,8 km/h (5 Bft)
08/04/2022 00:00 15,5 C 63 % 1005,4 hPa 0,0 mm 19,9 km/h (4 Bft) S-SO 0,00 h 0,102 mm 0 W/m 8,6 C 15,5 C 33,0 km/h (5 Bft)
08/04/2022 01:00 16,2 C 60 % 1005,0 hPa 0,0 mm 20,9 km/h (4 Bft) S-SO 0,00 h 0,102 mm 0 W/m 8,3 C 16,2 C 31,7 km/h (5 Bft)
08/04/2022 02:00 16,2 C 59 % 1004,4 hPa 0,0 mm 16,5 km/h (3 Bft) S-SO 0,00 h 0,102 mm 0 W/m 8,1 C 16,2 C 28,1 km/h (4 Bft)
08/04/2022 03:00 16,2 C 58 % 1003,7 hPa 0,0 mm 16,0 km/h (3 Bft) S-SO 0,00 h 0,102 mm 0 W/m 7,8 C 16,2 C 27,1 km/h (4 Bft)
08/04/2022 04:00 15,9 C 59 % 1003,4 hPa 0,0 mm 16,5 km/h (3 Bft) S-SO 0,00 h 0,102 mm 0 W/m 7,8 C 15,9 C 28,4 km/h (4 Bft)
08/04/2022 05:00 15,5 C 61 % 1003,5 hPa 0,0 mm 16,6 km/h (3 Bft) S-SO 0,00 h 0,102 mm 0 W/m 7,9 C 15,5 C 27,9 km/h (4 Bft)
08/04/2022 06:00 14,9 C 64 % 1003,4 hPa 0,0 mm 18,4 km/h (3 Bft) S-SO 0,00 h 0,102 mm 0 W/m 8,1 C 14,9 C 30,6 km/h (5 Bft)
08/04/2022 07:00 15,6 C 61 % 1003,5 hPa 0,0 mm 19,6 km/h (3 Bft) S-SO 0,05 h 0,076 mm 24 W/m 8,1 C 15,6 C 31,8 km/h (5 Bft)
08/04/2022 08:00 16,7 C 58 % 1003,7 hPa 0,0 mm 23,0 km/h (4 Bft) S-SO 0,00 h 0,102 mm 53 W/m 8,5 C 16,7 C 33,0 km/h (5 Bft)
08/04/2022 09:00 18,8 C 53 % 1004,2 hPa 0,0 mm 17,7 km/h (3 Bft) S-SO 0,87 h 0,152 mm 342 W/m 9,0 C 18,8 C 29,6 km/h (5 Bft)
08/04/2022 10:00 21,6 C 46 % 1004,4 hPa 0,0 mm 11,1 km/h (2 Bft) O-SO 1,00 h 0,305 mm 521 W/m 9,3 C 21,6 C 23,7 km/h (4 Bft)
08/04/2022 11:00 24,0 C 38 % 1004,7 hPa 0,0 mm 9,3 km/h (2 Bft) O-SO 1,00 h 0,406 mm 650 W/m 8,8 C 24,0 C 21,3 km/h (4 Bft)
08/04/2022 12:00 25,6 C 34 % 1004,7 hPa 0,0 mm 7,9 km/h (2 Bft) O-SO 0,97 h 0,483 mm 746 W/m 8,4 C 25,6 C 19,9 km/h (4 Bft)
08/04/2022 13:00 25,7 C 33 % 1004,2 hPa 0,0 mm 7,7 km/h (2 Bft) O-NO 0,97 h 0,533 mm 796 W/m 8,2 C 25,7 C 20,3 km/h (4 Bft)
08/04/2022 14:00 25,5 C 33 % 1003,6 hPa 0,0 mm 18,7 km/h (3 Bft) S-SO 1,00 h 0,508 mm 773 W/m 8,2 C 25,5 C 37,0 km/h (5 Bft)
08/04/2022 15:00 24,9 C 35 % 1003,0 hPa 0,0 mm 19,6 km/h (3 Bft) S-SO 1,00 h 0,660 mm 668 W/m 8,4 C 24,9 C 37,0 km/h (5 Bft)
08/04/2022 16:00 24,3 C 38 % 1002,4 hPa 0,0 mm 19,0 km/h (3 Bft) S-SO 1,00 h 0,610 mm 548 W/m 8,9 C 24,3 C 34,9 km/h (5 Bft)
08/04/2022 17:00 23,5 C 40 % 1002,6 hPa 0,0 mm 17,0 km/h (3 Bft) S-SO 1,00 h 0,508 mm 385 W/m 9,0 C 23,5 C 32,4 km/h (5 Bft)
08/04/2022 18:00 21,6 C 48 % 1002,9 hPa 0,0 mm 12,6 km/h (3 Bft) S-SO 0,43 h 0,381 mm 151 W/m 10,1 C 21,6 C 27,0 km/h (4 Bft)
08/04/2022 19:00 19,8 C 50 % 1002,9 hPa 0,0 mm 12,0 km/h (2 Bft) S-SO 0,02 h 0,178 mm 32 W/m 9,2 C 19,8 C 24,0 km/h (4 Bft)
08/04/2022 20:00 18,1 C 57 % 1003,1 hPa 0,0 mm 11,7 km/h (2 Bft) S-SO 0,00 h 0,102 mm 5 W/m 9,5 C 18,1 C 20,8 km/h (4 Bft)
08/04/2022 21:00 17,5 C 58 % 1003,5 hPa 0,0 mm 8,9 km/h (2 Bft) S-SO 0,00 h 0,076 mm 0 W/m 9,1 C 17,5 C 16,8 km/h (3 Bft)
08/04/2022 22:00 17,5 C 57 % 1003,4 hPa 0,0 mm 7,6 km/h (2 Bft) S-SO 0,00 h 0,076 mm 0 W/m 8,9 C 17,5 C 15,8 km/h (3 Bft)
08/04/2022 23:00 17,7 C 52 % 1002,9 hPa 0,0 mm 9,3 km/h (2 Bft) S-SO 0,00 h 0,076 mm 0 W/m 7,6 C 17,7 C 18,8 km/h (3 Bft)
09/04/2022 00:00 18,6 C 36 % 1002,2 hPa 0,0 mm 9,4 km/h (2 Bft) O-NO 0,00 h 0,076 mm 0 W/m 3,2 C 18,6 C 20,3 km/h (4 Bft)
09/04/2022 01:00 18,3 C 32 % 1002,1 hPa 0,0 mm 5,7 km/h (1 Bft) O-SO 0,00 h 0,102 mm 0 W/m 1,2 C 18,3 C 16,4 km/h (3 Bft)
09/04/2022 02:00 17,7 C 33 % 1001,7 hPa 0,0 mm 2,9 km/h (1 Bft) O-SO 0,00 h 0,102 mm 0 W/m 1,1 C 17,7 C 9,7 km/h (2 Bft)
09/04/2022 03:00 17,0 C 34 % 1000,8 hPa 0,0 mm 5,8 km/h (2 Bft) S-SO 0,00 h 0,076 mm 0 W/m 1,1 C 17,0 C 13,6 km/h (3 Bft)
09/04/2022 04:00 16,7 C 34 % 1000,3 hPa 0,0 mm 5,9 km/h (2 Bft) O-SO 0,00 h 0,102 mm 0 W/m 0,9 C 16,7 C 14,7 km/h (3 Bft)
09/04/2022 05:00 16,2 C 33 % 1000,3 hPa 0,0 mm 5,9 km/h (2 Bft) O-NO 0,00 h 0,102 mm 0 W/m -0,1 C 16,2 C 14,0 km/h (3 Bft)
09/04/2022 06:00 15,6 C 30 % 1000,3 hPa 0,0 mm 4,1 km/h (1 Bft) O-NO 0,00 h 0,102 mm 0 W/m -1,7 C 15,6 C 10,4 km/h (2 Bft)
09/04/2022 07:00 14,7 C 36 % 999,9 hPa 0,0 mm 10,6 km/h (2 Bft) S-SO 0,02 h 0,051 mm 22 W/m -0,3 C 14,7 C 19,7 km/h (3 Bft)
09/04/2022 08:00 14,4 C 38 % 999,6 hPa 0,0 mm 14,2 km/h (3 Bft) S-SO 0,02 h 0,102 mm 89 W/m 0,4 C 14,4 C 24,3 km/h (4 Bft)
09/04/2022 09:00 15,9 C 34 % 999,6 hPa 0,0 mm 6,2 km/h (2 Bft) O-SO 0,22 h 0,152 mm 229 W/m 0,0 C 15,9 C 14,3 km/h (3 Bft)
09/04/2022 10:00 18,2 C 28 % 999,4 hPa 0,0 mm 5,2 km/h (1 Bft) S-SO 0,95 h 0,178 mm 509 W/m -0,8 C 18,2 C 12,3 km/h (3 Bft)
09/04/2022 11:00 21,5 C 19 % 999,4 hPa 0,0 mm 3,5 km/h (1 Bft) NO 1,00 h 0,330 mm 687 W/m -3,2 C 21,5 C 9,7 km/h (2 Bft)
09/04/2022 12:00 22,3 C 16 % 999,3 hPa 0,0 mm 6,2 km/h (2 Bft) NO 1,00 h 0,457 mm 776 W/m -4,8 C 22,3 C 16,8 km/h (3 Bft)
09/04/2022 13:00 21,8 C 16 % 999,4 hPa 0,0 mm 8,4 km/h (2 Bft) O-SO 1,00 h 0,559 mm 806 W/m -5,0 C 21,8 C 21,8 km/h (4 Bft)
09/04/2022 14:00 21,2 C 17 % 999,3 hPa 0,0 mm 10,3 km/h (2 Bft) O-NO 1,00 h 0,584 mm 778 W/m -4,6 C 21,2 C 24,8 km/h (4 Bft)
09/04/2022 15:00 21,2 C 18 % 999,0 hPa 0,0 mm 7,7 km/h (2 Bft) O-NO 1,00 h 0,584 mm 695 W/m -3,9 C 21,2 C 21,1 km/h (4 Bft)
09/04/2022 16:00 21,0 C 18 % 999,3 hPa 0,0 mm 6,3 km/h (2 Bft) O-NO 1,00 h 0,508 mm 565 W/m -4,3 C 21,0 C 17,1 km/h (3 Bft)
09/04/2022 17:00 20,7 C 26 % 1000,9 hPa 0,0 mm 2,1 km/h (1 Bft) E 1,00 h 0,406 mm 398 W/m 0,3 C 20,7 C 5,8 km/h (2 Bft)
09/04/2022 18:00 19,5 C 22 % 1002,5 hPa 0,0 mm 1,8 km/h (1 Bft) NO 0,92 h 0,254 mm 221 W/m -2,5 C 19,5 C 8,2 km/h (2 Bft)
09/04/2022 19:00 16,5 C 23 % 1004,2 hPa 0,0 mm 2,8 km/h (1 Bft) NO 0,03 h 0,152 mm 28 W/m -4,9 C 16,5 C 8,7 km/h (2 Bft)
09/04/2022 20:00 14,6 C 23 % 1005,8 hPa 0,0 mm 7,5 km/h (2 Bft) NO 0,00 h 0,051 mm 6 W/m -6,2 C 14,6 C 14,6 km/h (3 Bft)
09/04/2022 21:00 13,6 C 24 % 1007,4 hPa 0,0 mm 12,0 km/h (2 Bft) NO 0,00 h 0,076 mm 0 W/m -6,6 C 13,6 C 20,6 km/h (4 Bft)
09/04/2022 22:00 12,9 C 21 % 1008,8 hPa 0,0 mm 4,2 km/h (1 Bft) NO 0,00 h 0,127 mm 0 W/m -8,7 C 12,9 C 9,6 km/h (2 Bft)
09/04/2022 23:00 11,7 C 24 % 1010,3 hPa 0,0 mm 2,0 km/h (1 Bft) S-SO 0,00 h 0,076 mm 0 W/m -8,4 C 11,7 C 3,8 km/h (1 Bft)
10/04/2022 00:00 10,6 C 24 % 1011,7 hPa 0,0 mm 0,5 km/h (0 Bft) S-SO 0,00 h 0,076 mm 0 W/m -8,9 C 10,6 C 1,3 km/h (1 Bft)
10/04/2022 01:00 9,8 C 26 % 1012,8 hPa 0,0 mm 0,2 km/h (0 Bft) S-SO 0,00 h 0,051 mm 0 W/m -8,9 C 9,8 C 0,5 km/h (0 Bft)
10/04/2022 02:00 9,2 C 27 % 1013,7 hPa 0,0 mm 0,2 km/h (0 Bft) S-SO 0,00 h 0,051 mm 0 W/m -9,0 C 9,2 C 0,9 km/h (0 Bft)
10/04/2022 03:00 8,4 C 29 % 1014,2 hPa 0,0 mm 1,2 km/h (1 Bft) S-SO 0,00 h 0,051 mm 0 W/m -8,5 C 8,4 C 3,1 km/h (1 Bft)
10/04/2022 04:00 8,2 C 31 % 1014,8 hPa 0,0 mm 2,9 km/h (1 Bft) S-SO 0,00 h 0,051 mm 0 W/m -8,0 C 8,2 C 4,9 km/h (1 Bft)
10/04/2022 05:00 8,6 C 37 % 1015,4 hPa 0,0 mm 3,8 km/h (1 Bft) O-NO 0,00 h 0,051 mm 0 W/m -5,2 C 8,5 C 6,8 km/h (2 Bft)
10/04/2022 06:00 8,9 C 46 % 1016,1 hPa 0,0 mm 4,3 km/h (1 Bft) O-NO 0,00 h 0,051 mm 5 W/m -2,0 C 8,6 C 7,6 km/h (2 Bft)
10/04/2022 07:00 8,8 C 48 % 1016,6 hPa 0,0 mm 3,7 km/h (1 Bft) NO 0,00 h 0,025 mm 16 W/m -1,6 C 8,7 C 6,9 km/h (2 Bft)
10/04/2022 08:00 10,0 C 52 % 1017,3 hPa 0,0 mm 1,4 km/h (1 Bft) O-NO 0,00 h 0,025 mm 34 W/m 0,7 C 10,0 C 4,3 km/h (1 Bft)
10/04/2022 09:00 13,0 C 49 % 1017,6 hPa 0,0 mm 3,3 km/h (1 Bft) SO 0,93 h 0,025 mm 374 W/m 2,5 C 13,0 C 8,0 km/h (2 Bft)
10/04/2022 10:00 14,7 C 43 % 1017,9 hPa 0,0 mm 5,6 km/h (1 Bft) S-SO 1,00 h 0,203 mm 548 W/m 2,3 C 14,7 C 12,1 km/h (2 Bft)
10/04/2022 11:00 15,7 C 39 % 1018,3 hPa 0,0 mm 6,8 km/h (2 Bft) S-SO 1,00 h 0,330 mm 679 W/m 1,9 C 15,7 C 13,4 km/h (3 Bft)
10/04/2022 12:00 16,2 C 38 % 1018,2 hPa 0,0 mm 9,4 km/h (2 Bft) S 1,00 h 0,406 mm 754 W/m 1,7 C 16,2 C 16,4 km/h (3 Bft)
10/04/2022 13:00 16,5 C 35 % 1018,0 hPa 0,0 mm 9,6 km/h (2 Bft) S-SE 1,00 h 0,483 mm 774 W/m 1,2 C 16,5 C 17,4 km/h (3 Bft)
10/04/2022 14:00 16,9 C 33 % 1017,6 hPa 0,0 mm 8,3 km/h (2 Bft) S-SE 1,00 h 0,508 mm 741 W/m 0,6 C 16,9 C 15,9 km/h (3 Bft)
10/04/2022 15:00 16,6 C 32 % 1017,6 hPa 0,0 mm 8,5 km/h (2 Bft) S 1,00 h 0,483 mm 562 W/m -0,2 C 16,6 C 15,2 km/h (3 Bft)
10/04/2022 16:00 15,1 C 34 % 1017,6 hPa 0,0 mm 8,3 km/h (2 Bft) S 0,07 h 0,381 mm 265 W/m -0,9 C 15,1 C 13,8 km/h (3 Bft)
10/04/2022 17:00 14,3 C 29 % 1017,4 hPa 0,0 mm 7,6 km/h (2 Bft) S 0,07 h 0,203 mm 215 W/m -3,5 C 14,3 C 12,9 km/h (3 Bft)
10/04/2022 18:00 14,7 C 32 % 1017,5 hPa 0,0 mm 4,7 km/h (1 Bft) S 0,67 h 0,178 mm 223 W/m -1,9 C 14,7 C 8,9 km/h (2 Bft)
10/04/2022 19:00 13,4 C 32 % 1017,7 hPa 0,0 mm 3,3 km/h (1 Bft) SO 0,05 h 0,152 mm 49 W/m -3,0 C 13,4 C 6,2 km/h (2 Bft)
10/04/2022 20:00 11,9 C 48 % 1018,1 hPa 0,0 mm 0,2 km/h (0 Bft) SO 0,00 h 0,051 mm 5 W/m 1,0 C 11,9 C 0,6 km/h (0 Bft)
10/04/2022 21:00 10,3 C 60 % 1018,6 hPa 0,0 mm 0,2 km/h (0 Bft) SO 0,00 h 0,000 mm 0 W/m 2,9 C 10,3 C 0,8 km/h (0 Bft)
10/04/2022 22:00 9,2 C 63 % 1019,0 hPa 0,0 mm 0,0 km/h (0 Bft) SO 0,00 h 0,025 mm 0 W/m 2,4 C 9,2 C 0,1 km/h (0 Bft)
10/04/2022 23:00 8,5 C 66 % 1019,2 hPa 0,0 mm 0,0 km/h (0 Bft) SO 0,00 h 0,025 mm 0 W/m 2,5 C 8,5 C 0,2 km/h (0 Bft)
Min-Date _ 04/04/22 09/04/22 09/04/22 - 04/04/22 - - - - 09/04/22 04/04/22 04/04/22
_ Min-Heure 06:54 12:11 15:30 - 00:00 - - - - 23:04 06:54 00:00
Minimum _ 3,5 C 13 % 998,8 hPa - 0,0 km/h (0 Bft) - - - - -10,6 C 3,5 C 0,0 km/h (0 Bft)
Max-Date _ 08/04/22 04/04/22 10/04/22 04/04/22 08/04/22 - 04/04/22 08/04/22 04/04/22 07/04/22 08/04/22 08/04/22
_ Max-Heure 13:49 00:09 23:30 05:09 06:28 - 09:09 15:00 12:59 13:28 13:49 14:13
Maximum _ 26,3 C 94 % 1019,3 hPa 0,2 mm 32,2 km/h
S-SO (5 Bft)
- 0,02 h 0,660 mm 912 W/m 12,1 C 26,3 C 64,4 km/h
SO (8 Bft)
Moyenne _ 13,1 C 58 % 1009,6 hPa #0,2 mm 4,5 km/h (1 Bft) S-SO #53:18 h #25,748 mm 348 W/m 3,9 C 13,1 C 9,2 km/h (2 Bft)
Roquefort les pins